Time;durP1;ratioP1;P1;durP2;ratioP2;P2;SDS_P1;SDS_P2;PMS_P1;PMS_P2;Temp;Humidity;BMP_temperature;BMP_pressure;BME280_temperature;BME280_humidity;BME280_pressure;Samples;Min_cycle;Max_cycle;Signal;HPM_P1;HPM_P2
2021/01/11 00:02:08;;;;;;;19.80;8.73;;;-1.50;84.30;;;;;;4915299;29;20123;-78
2021/01/11 00:04:33;;;;;;;19.17;8.70;;;-1.50;84.80;;;;;;4906953;29;20466;-77
2021/01/11 00:06:59;;;;;;;19.37;7.87;;;-1.50;84.30;;;;;;4926651;29;20035;-77
2021/01/11 00:09:24;;;;;;;16.17;8.33;;;-1.60;83.80;;;;;;4918263;29;20076;-77
2021/01/11 00:11:50;;;;;;;13.93;7.93;;;-1.60;83.90;;;;;;4917719;29;20473;-78
2021/01/11 00:14:16;;;;;;;15.97;7.70;;;-1.70;83.90;;;;;;4915309;29;20327;-78
2021/01/11 00:16:42;;;;;;;22.00;9.70;;;-1.70;84.10;;;;;;4929059;29;20029;-78
2021/01/11 00:19:07;;;;;;;17.20;8.70;;;-1.70;84.00;;;;;;4927016;29;20091;-78
2021/01/11 00:21:33;;;;;;;14.97;8.30;;;-1.70;84.00;;;;;;4924159;29;20061;-78
2021/01/11 00:23:58;;;;;;;16.80;8.70;;;-1.70;83.90;;;;;;4918051;29;20408;-79
2021/01/11 00:26:24;;;;;;;15.90;8.30;;;-1.80;83.80;;;;;;4904632;29;20556;-80
2021/01/11 00:28:50;;;;;;;19.50;8.53;;;-1.80;83.80;;;;;;4909282;29;20035;-79
2021/01/11 00:31:23;;;;;;;17.87;8.67;;;-1.90;83.70;;;;;;4899073;29;20482;-80
2021/01/11 00:33:49;;;;;;;23.47;8.27;;;-1.90;83.50;;;;;;4917178;29;20032;-80
2021/01/11 00:36:15;;;;;;;15.73;7.53;;;-2.00;83.80;;;;;;4918111;29;20035;-79
2021/01/11 00:38:41;;;;;;;20.00;9.03;;;-2.00;83.90;;;;;;4929699;29;20024;-78
2021/01/11 00:41:06;;;;;;;18.57;8.20;;;-2.00;83.60;;;;;;4925873;29;20043;-79
2021/01/11 00:43:32;;;;;;;17.50;7.97;;;-2.20;83.70;;;;;;4918031;29;20028;-78
2021/01/11 00:45:58;;;;;;;16.60;8.60;;;-2.20;84.00;;;;;;4933460;29;20032;-79
2021/01/11 00:48:23;;;;;;;18.57;8.97;;;-2.30;84.00;;;;;;4912091;29;20055;-78
2021/01/11 00:50:49;;;;;;;21.20;8.83;;;-2.30;84.60;;;;;;4907172;29;20032;-79
2021/01/11 00:53:14;;;;;;;20.07;9.37;;;-2.30;84.90;;;;;;4906227;29;20037;-79
2021/01/11 00:55:40;;;;;;;19.20;8.90;;;-2.20;84.90;;;;;;4914123;29;20028;-78
2021/01/11 00:58:06;;;;;;;18.23;9.20;;;-2.10;84.50;;;;;;4917446;29;20354;-79
2021/01/11 01:00:31;;;;;;;22.50;9.87;;;-2.10;84.10;;;;;;4930693;29;20408;-79
2021/01/11 01:02:57;;;;;;;22.83;9.53;;;-2.10;83.90;;;;;;4917387;29;20139;-79
2021/01/11 01:05:23;;;;;;;20.77;8.93;;;-2.10;83.80;;;;;;4917761;29;20043;-79
2021/01/11 01:07:48;;;;;;;17.10;8.47;;;-2.10;83.90;;;;;;4902281;29;20056;-79
2021/01/11 01:10:14;;;;;;;22.13;9.97;;;-2.00;83.80;;;;;;4932547;29;20035;-79
2021/01/11 01:12:41;;;;;;;19.60;9.30;;;-2.00;83.60;;;;;;4917503;29;20397;-79
2021/01/11 01:15:08;;;;;;;18.40;9.03;;;-2.00;84.10;;;;;;4925979;29;20130;-78
2021/01/11 01:17:35;;;;;;;21.10;9.87;;;-2.00;83.40;;;;;;4921945;29;20032;-79
2021/01/11 01:20:03;;;;;;;21.23;9.60;;;-2.10;84.20;;;;;;4900127;29;20031;-79
2021/01/11 01:22:29;;;;;;;19.63;9.53;;;-2.10;84.20;;;;;;4899498;29;20045;-78
2021/01/11 01:24:54;;;;;;;18.73;8.80;;;-2.10;83.60;;;;;;4906940;29;20023;-78
2021/01/11 01:27:20;;;;;;;18.13;9.30;;;-2.20;83.50;;;;;;4923144;29;20028;-78
2021/01/11 01:29:45;;;;;;;18.40;8.57;;;-2.10;83.70;;;;;;4916729;29;20123;-78
2021/01/11 01:32:11;;;;;;;17.97;8.43;;;-2.10;83.60;;;;;;4897450;29;20028;-78
2021/01/11 01:34:36;;;;;;;19.80;8.97;;;-2.10;83.70;;;;;;4904902;29;20092;-78
2021/01/11 01:37:02;;;;;;;17.73;8.90;;;-2.10;83.80;;;;;;4907286;29;20036;-78
2021/01/11 01:39:28;;;;;;;17.97;8.93;;;-2.10;83.80;;;;;;4912461;29;20028;-80
2021/01/11 01:41:53;;;;;;;17.77;8.97;;;-2.10;83.70;;;;;;4901122;29;20040;-80
2021/01/11 01:44:19;;;;;;;20.30;8.57;;;-2.10;83.60;;;;;;4920341;29;20023;-80
2021/01/11 01:46:44;;;;;;;18.40;8.83;;;-2.10;83.60;;;;;;4929122;29;20024;-80
2021/01/11 01:49:10;;;;;;;18.73;8.70;;;-2.20;83.40;;;;;;4923924;29;20135;-80
2021/01/11 01:51:39;;;;;;;19.20;9.43;;;-2.40;83.80;;;;;;4917223;29;20488;-80
2021/01/11 01:54:05;;;;;;;18.00;8.67;;;-2.50;84.60;;;;;;4900430;29;20122;-78
2021/01/11 01:56:30;;;;;;;21.33;9.23;;;-2.50;84.20;;;;;;4911769;29;20052;-77
2021/01/11 01:58:58;;;;;;;21.00;9.30;;;-2.60;84.10;;;;;;4907438;29;20088;-78
2021/01/11 02:01:24;;;;;;;17.47;8.63;;;-2.60;84.30;;;;;;4903669;29;20032;-78
2021/01/11 02:03:50;;;;;;;18.53;8.83;;;-2.60;84.40;;;;;;4913763;29;20056;-78
2021/01/11 02:06:15;;;;;;;18.33;8.97;;;-2.50;84.10;;;;;;4901740;29;20389;-78
2021/01/11 02:08:49;;;;;;;18.80;8.47;;;-2.40;83.70;;;;;;4910179;29;20032;-78
2021/01/11 02:11:29;;;;;;;20.70;8.80;;;-2.50;83.60;;;;;;4909663;29;20579;-78
2021/01/11 02:14:18;;;;;;;20.13;9.47;;;-2.40;84.00;;;;;;4899829;29;20032;-78
2021/01/11 02:17:02;;;;;;;20.23;9.53;;;-2.40;83.90;;;;;;4908624;29;20039;-79
2021/01/11 02:19:36;;;;;;;22.00;9.40;;;-2.30;83.90;;;;;;4910923;29;20529;-79
2021/01/11 02:22:17;;;;;;;15.43;8.57;;;-2.30;83.90;;;;;;4901089;29;20512;-79
2021/01/11 02:25:02;;;;;;;23.00;9.23;;;-2.30;83.70;;;;;;4927975;29;20028;-79
2021/01/11 02:27:41;;;;;;;20.33;8.50;;;-2.40;83.70;;;;;;4916349;29;20063;-79
2021/01/11 02:30:18;;;;;;;21.13;9.17;;;-2.40;83.80;;;;;;4899652;29;20166;-79
2021/01/11 02:32:55;;;;;;;21.27;8.87;;;-2.40;83.80;;;;;;4909566;29;20072;-80
2021/01/11 02:35:22;;;;;;;19.77;8.93;;;-2.40;83.60;;;;;;4910434;29;20063;-79
2021/01/11 02:37:48;;;;;;;17.03;8.40;;;-2.40;83.80;;;;;;4901559;29;20463;-78
2021/01/11 02:40:14;;;;;;;20.50;8.47;;;-2.40;83.90;;;;;;4912203;29;20029;-79
2021/01/11 02:42:40;;;;;;;18.73;9.27;;;-2.40;84.30;;;;;;4905634;29;20112;-79
2021/01/11 02:45:08;;;;;;;20.33;9.60;;;-2.40;83.90;;;;;;4915106;29;20029;-79
2021/01/11 02:48:11;;;;;;;23.47;9.53;;;-2.40;83.80;;;;;;4901667;29;20113;-80
2021/01/11 02:51:06;;;;;;;16.33;8.33;;;-2.30;83.60;;;;;;4916069;29;20036;-79
2021/01/11 02:53:42;;;;;;;22.90;9.33;;;-2.40;83.70;;;;;;4903852;29;20055;-79
2021/01/11 02:56:10;;;;;;;18.97;9.03;;;-2.30;83.50;;;;;;4903658;29;20478;-79
2021/01/11 02:58:58;;;;;;;19.07;9.23;;;-2.40;83.10;;;;;;4913473;29;20165;-79
2021/01/11 03:01:28;;;;;;;20.17;8.97;;;-2.40;83.00;;;;;;4913792;29;20516;-79
2021/01/11 03:03:56;;;;;;;17.93;9.13;;;-2.50;82.70;;;;;;4903878;29;20032;-79
2021/01/11 03:06:32;;;;;;;19.03;9.03;;;-2.40;83.10;;;;;;4914736;29;20024;-79
2021/01/11 03:09:06;;;;;;;20.43;9.43;;;-2.50;82.70;;;;;;4910038;29;20032;-79
2021/01/11 03:11:34;;;;;;;18.10;8.23;;;-2.50;82.70;;;;;;4906213;29;20024;-79
2021/01/11 03:14:00;;;;;;;19.57;9.03;;;-2.50;82.90;;;;;;4917101;29;20122;-79
2021/01/11 03:16:26;;;;;;;18.47;8.47;;;-2.60;83.00;;;;;;4915342;29;20100;-78
2021/01/11 03:18:51;;;;;;;20.23;8.80;;;-2.60;82.90;;;;;;4908441;29;20055;-78
2021/01/11 03:21:17;;;;;;;22.13;9.33;;;-2.60;82.90;;;;;;4926377;29;20462;-78
2021/01/11 03:23:42;;;;;;;19.30;9.00;;;-2.60;83.00;;;;;;4919495;29;20482;-77
2021/01/11 03:26:08;;;;;;;20.63;9.67;;;-2.70;83.10;;;;;;4902930;29;20087;-78
2021/01/11 03:28:33;;;;;;;19.03;8.90;;;-2.70;83.30;;;;;;4912738;29;20103;-77
2021/01/11 03:30:59;;;;;;;19.33;8.87;;;-2.70;83.40;;;;;;4910359;29;20083;-77
2021/01/11 03:33:25;;;;;;;19.83;8.80;;;-2.70;82.70;;;;;;4905737;29;20032;-77
2021/01/11 03:35:50;;;;;;;19.00;8.40;;;-2.70;82.50;;;;;;4915303;29;20059;-78
2021/01/11 03:38:16;;;;;;;19.33;9.10;;;-2.80;82.70;;;;;;4905130;29;20362;-77
2021/01/11 03:40:41;;;;;;;20.00;8.87;;;-2.80;83.10;;;;;;4912728;29;20028;-79
2021/01/11 03:43:07;;;;;;;18.57;8.70;;;-2.80;83.30;;;;;;4910444;29;20238;-79
2021/01/11 03:45:32;;;;;;;20.53;9.50;;;-2.80;83.00;;;;;;4918145;29;20038;-80
2021/01/11 03:47:58;;;;;;;20.53;9.17;;;-2.80;82.90;;;;;;4902588;29;20053;-80
2021/01/11 03:50:24;;;;;;;18.03;8.60;;;-2.80;83.00;;;;;;4932852;29;20020;-80
2021/01/11 03:52:49;;;;;;;20.23;9.03;;;-2.90;83.00;;;;;;4918885;29;20036;-80
2021/01/11 03:55:15;;;;;;;19.00;9.03;;;-3.00;83.10;;;;;;4907490;29;20432;-80
2021/01/11 03:57:40;;;;;;;24.40;8.73;;;-3.10;83.50;;;;;;4915994;29;20024;-78
2021/01/11 04:00:07;;;;;;;20.27;8.53;;;-3.20;83.80;;;;;;4903309;29;20034;-78
2021/01/11 04:02:33;;;;;;;18.97;8.43;;;-3.20;84.10;;;;;;4913194;29;20033;-78
2021/01/11 04:04:59;;;;;;;20.50;9.50;;;-3.30;84.50;;;;;;4907728;29;20040;-79
2021/01/11 04:07:25;;;;;;;19.03;9.03;;;-3.30;84.50;;;;;;4905613;29;20028;-78
2021/01/11 04:09:50;;;;;;;24.20;9.70;;;-3.30;84.70;;;;;;4914494;29;20028;-78
2021/01/11 04:12:16;;;;;;;22.20;9.43;;;-3.30;84.50;;;;;;4903646;29;20071;-77
2021/01/11 04:14:41;;;;;;;17.87;8.20;;;-3.30;84.80;;;;;;4918177;29;20051;-78
2021/01/11 04:17:07;;;;;;;20.77;9.90;;;-3.20;84.60;;;;;;4907046;29;20122;-77
2021/01/11 04:19:33;;;;;;;19.17;8.47;;;-3.20;84.00;;;;;;4922054;29;20032;-78
2021/01/11 04:21:58;;;;;;;18.67;8.10;;;-3.20;83.80;;;;;;4903169;29;20470;-78
2021/01/11 04:24:24;;;;;;;20.03;9.07;;;-3.20;83.80;;;;;;4913756;29;20036;-78
2021/01/11 04:26:50;;;;;;;21.37;9.47;;;-3.30;83.50;;;;;;4907448;29;20430;-78
2021/01/11 04:29:15;;;;;;;20.00;9.10;;;-3.30;83.20;;;;;;4907465;29;20103;-78
2021/01/11 04:31:41;;;;;;;16.73;8.70;;;-3.40;83.20;;;;;;4914588;29;20039;-78
2021/01/11 04:34:06;;;;;;;20.37;8.60;;;-3.30;83.40;;;;;;4918125;29;20218;-79
2021/01/11 04:36:35;;;;;;;19.40;8.77;;;-3.30;83.40;;;;;;4935153;29;20078;-78
2021/01/11 04:39:01;;;;;;;17.40;8.13;;;-3.20;83.40;;;;;;4926942;29;20055;-78
2021/01/11 04:41:35;;;;;;;21.03;8.97;;;-3.20;83.30;;;;;;4905876;29;20029;-78
2021/01/11 04:44:05;;;;;;;19.43;8.30;;;-3.40;83.50;;;;;;4915709;29;20154;-78
2021/01/11 04:46:30;;;;;;;19.33;8.50;;;-3.40;83.70;;;;;;4918274;29;20051;-78
2021/01/11 04:48:57;;;;;;;21.23;9.33;;;-3.40;83.90;;;;;;4907574;29;20060;-79
2021/01/11 04:51:23;;;;;;;20.20;9.10;;;-3.40;84.10;;;;;;4911773;29;20036;-78
2021/01/11 04:53:50;;;;;;;21.30;9.47;;;-3.40;84.20;;;;;;4901879;29;20560;-79
2021/01/11 04:56:18;;;;;;;19.27;8.93;;;-3.40;84.10;;;;;;4914984;29;20935;-78
2021/01/11 04:58:56;;;;;;;20.50;9.00;;;-3.40;84.00;;;;;;4907698;29;20079;-78
2021/01/11 05:01:24;;;;;;;24.50;9.03;;;-3.40;84.00;;;;;;4905060;29;20032;-78
2021/01/11 05:03:51;;;;;;;21.80;8.13;;;-3.40;84.10;;;;;;4915041;29;20484;-79
2021/01/11 05:06:18;;;;;;;19.87;9.27;;;-3.40;84.30;;;;;;4903839;29;20039;-79
2021/01/11 05:08:44;;;;;;;22.90;8.80;;;-3.20;84.20;;;;;;4910916;29;20025;-78
2021/01/11 05:11:10;;;;;;;19.93;8.63;;;-3.20;83.90;;;;;;4912422;29;20035;-78
2021/01/11 05:13:36;;;;;;;23.63;8.77;;;-3.20;83.50;;;;;;4902789;29;20047;-78
2021/01/11 05:16:14;;;;;;;20.50;8.63;;;-3.10;83.20;;;;;;4929705;29;20378;-78
2021/01/11 05:18:41;;;;;;;22.77;9.40;;;-3.10;83.10;;;;;;4909568;29;20032;-78
2021/01/11 05:21:07;;;;;;;21.97;9.53;;;-3.10;82.90;;;;;;4908583;29;20144;-78
2021/01/11 05:23:39;;;;;;;27.20;11.73;;;-3.10;82.60;;;;;;4904000;29;20037;-79
2021/01/11 05:26:15;;;;;;;27.17;11.43;;;-3.20;82.50;;;;;;4913340;29;20040;-78
2021/01/11 05:28:43;;;;;;;26.30;10.33;;;-3.20;82.60;;;;;;4906423;29;20064;-78
2021/01/11 05:31:09;;;;;;;19.60;9.23;;;-3.20;82.30;;;;;;4904940;29;20055;-77
2021/01/11 05:33:35;;;;;;;21.43;9.23;;;-3.10;82.20;;;;;;4911953;29;20134;-78
2021/01/11 05:36:04;;;;;;;21.83;9.40;;;-3.10;82.10;;;;;;4900425;29;20081;-78
2021/01/11 05:38:35;;;;;;;20.17;8.93;;;-3.10;82.10;;;;;;4918072;29;20031;-78
2021/01/11 05:41:16;;;;;;;18.17;9.23;;;-3.20;82.20;;;;;;4907724;29;20084;-79
2021/01/11 05:43:42;;;;;;;20.02;8.63;;;-3.20;82.20;;;;;;4913303;29;20491;-78
2021/01/11 05:46:37;;;;;;;18.67;9.30;;;-3.30;81.90;;;;;;4930244;29;20138;-78
2021/01/11 05:49:05;;;;;;;18.07;8.03;;;-3.30;82.20;;;;;;4898479;29;20063;-78
2021/01/11 05:51:32;;;;;;;20.37;9.20;;;-3.40;82.10;;;;;;4911430;29;20151;-78
2021/01/11 05:53:58;;;;;;;19.17;8.87;;;-3.40;82.20;;;;;;4914271;29;20047;-78
2021/01/11 05:56:25;;;;;;;16.47;8.63;;;-3.40;82.30;;;;;;4902949;29;20031;-78
2021/01/11 05:59:06;;;;;;;21.03;8.77;;;-3.50;82.10;;;;;;4907440;29;20053;-79
2021/01/11 06:01:33;;;;;;;19.97;8.50;;;-3.60;81.70;;;;;;4911898;29;20052;-80
2021/01/11 06:03:59;;;;;;;21.77;9.67;;;-3.70;82.10;;;;;;4900613;29;20037;-79
2021/01/11 06:06:25;;;;;;;16.43;8.03;;;-3.70;82.40;;;;;;4911267;29;20031;-80
2021/01/11 06:08:52;;;;;;;21.33;8.80;;;-3.70;82.80;;;;;;4905937;29;20103;-80
2021/01/11 06:11:29;;;;;;;20.10;8.70;;;-3.70;83.10;;;;;;4923306;29;20028;-80
2021/01/11 06:13:58;;;;;;;21.63;9.30;;;-3.60;83.10;;;;;;4915953;29;20032;-79
2021/01/11 06:16:28;;;;;;;18.23;7.43;;;-3.60;82.90;;;;;;4917665;29;20028;-79
2021/01/11 06:18:54;;;;;;;18.67;7.70;;;-3.60;82.60;;;;;;4908379;29;20056;-79
2021/01/11 06:21:21;;;;;;;18.93;8.50;;;-3.50;82.40;;;;;;4910000;29;20040;-79
2021/01/11 06:23:47;;;;;;;16.47;8.00;;;-3.40;82.20;;;;;;4901653;29;20043;-80
2021/01/11 06:26:29;;;;;;;17.87;8.13;;;-3.50;82.00;;;;;;4931178;29;20032;-79
2021/01/11 06:28:55;;;;;;;17.50;8.20;;;-3.50;82.00;;;;;;4915210;29;20020;-79
2021/01/11 06:31:31;;;;;;;16.83;8.13;;;-3.50;82.00;;;;;;4922412;29;20298;-79
2021/01/11 06:33:57;;;;;;;18.63;9.10;;;-3.50;81.90;;;;;;4913724;29;20036;-79
2021/01/11 06:36:31;;;;;;;16.23;7.87;;;-3.60;82.30;;;;;;4902128;29;20027;-78
2021/01/11 06:39:06;;;;;;;21.13;8.87;;;-3.60;82.50;;;;;;4924661;29;20123;-78
2021/01/11 06:41:33;;;;;;;18.83;7.93;;;-3.60;82.30;;;;;;4916008;29;20384;-79
2021/01/11 06:44:04;;;;;;;16.50;7.63;;;-3.60;82.10;;;;;;4899441;29;20032;-79
2021/01/11 06:46:30;;;;;;;13.50;6.10;;;-3.60;82.10;;;;;;4910249;29;20046;-78
2021/01/11 06:48:58;;;;;;;16.50;7.53;;;-3.60;82.10;;;;;;4905284;29;20485;-79
2021/01/11 06:51:32;;;;;;;17.27;8.20;;;-3.50;82.10;;;;;;4902427;29;20029;-79
2021/01/11 06:54:14;;;;;;;21.47;8.63;;;-3.60;82.00;;;;;;4895731;29;20175;-76
2021/01/11 06:56:41;;;;;;;19.27;7.80;;;-3.60;82.20;;;;;;4896759;29;20029;-76
2021/01/11 06:59:08;;;;;;;15.67;7.37;;;-3.70;82.60;;;;;;4896911;29;20146;-77
2021/01/11 07:01:38;;;;;;;17.50;8.03;;;-3.70;82.70;;;;;;4895704;29;20393;-77
2021/01/11 07:04:07;;;;;;;18.27;7.33;;;-3.70;83.30;;;;;;4895798;29;20120;-76
2021/01/11 07:06:40;;;;;;;15.43;7.23;;;-3.70;83.00;;;;;;4896547;29;20033;-76
2021/01/11 07:09:17;;;;;;;16.13;7.17;;;-3.60;83.20;;;;;;4896118;29;20028;-77
2021/01/11 07:11:53;;;;;;;20.03;7.87;;;-3.60;83.10;;;;;;4897628;29;20033;-76
2021/01/11 07:14:23;;;;;;;17.73;6.97;;;-3.60;83.20;;;;;;4903406;29;20039;-77
2021/01/11 07:16:52;;;;;;;18.73;8.13;;;-3.60;83.90;;;;;;4934336;29;20063;-76
2021/01/11 07:19:23;;;;;;;15.40;7.03;;;-3.60;83.10;;;;;;4935293;29;20028;-76
2021/01/11 07:21:50;;;;;;;19.10;8.50;;;-3.60;83.00;;;;;;4934216;29;20032;-77
2021/01/11 07:24:16;;;;;;;16.10;7.33;;;-3.60;83.00;;;;;;4935268;29;20066;-77
2021/01/11 07:26:43;;;;;;;16.47;7.63;;;-3.50;82.80;;;;;;4933752;29;20495;-77
2021/01/11 07:29:17;;;;;;;16.63;8.07;;;-3.60;82.40;;;;;;4932936;29;20027;-75
2021/01/11 07:31:44;;;;;;;17.83;8.03;;;-3.60;82.50;;;;;;4934810;29;20347;-76
2021/01/11 07:34:18;;;;;;;19.60;7.97;;;-3.50;82.70;;;;;;4932657;29;20075;-77
2021/01/11 07:36:44;;;;;;;21.20;8.43;;;-3.50;82.80;;;;;;4933188;29;20399;-75
2021/01/11 07:39:25;;;;;;;17.40;7.63;;;-3.60;83.10;;;;;;4933954;29;20099;-75
2021/01/11 07:41:54;;;;;;;16.97;7.47;;;-3.60;83.10;;;;;;4937568;29;20083;-78
2021/01/11 07:44:21;;;;;;;17.53;8.00;;;-3.60;83.00;;;;;;4930005;29;20055;-77
2021/01/11 07:46:56;;;;;;;15.90;7.37;;;-3.70;83.60;;;;;;4900779;29;20040;-79
2021/01/11 07:49:22;;;;;;;17.90;7.33;;;-3.60;83.30;;;;;;4898363;29;20084;-76
2021/01/11 07:51:49;;;;;;;20.03;8.57;;;-3.60;83.00;;;;;;4898737;29;20385;-78
2021/01/11 07:54:18;;;;;;;18.73;8.20;;;-3.50;82.80;;;;;;4931077;29;20034;-77
2021/01/11 07:56:45;;;;;;;17.17;7.73;;;-3.50;82.50;;;;;;4937176;29;20039;-78
2021/01/11 07:59:10;;;;;;;19.63;8.33;;;-3.40;82.60;;;;;;4936553;29;20028;-77
2021/01/11 08:01:44;;;;;;;20.27;8.67;;;-3.40;82.40;;;;;;4937502;29;20024;-76
2021/01/11 08:04:10;;;;;;;20.37;8.67;;;-3.50;83.00;;;;;;4936229;29;20036;-78
2021/01/11 08:07:06;;;;;;;16.53;7.43;;;-3.50;82.40;;;;;;4938407;29;20112;-80
2021/01/11 08:09:34;;;;;;;18.57;7.60;;;-3.50;82.30;;;;;;4936679;29;20140;-80
2021/01/11 08:12:16;;;;;;;14.77;6.50;;;-3.40;82.50;;;;;;4936626;29;20032;-79
2021/01/11 08:14:47;;;;;;;16.60;7.70;;;-3.40;82.00;;;;;;4932370;29;20020;-81
2021/01/11 08:17:13;;;;;;;17.57;7.70;;;-3.40;81.90;;;;;;4919573;29;20039;-80
2021/01/11 08:19:42;;;;;;;15.73;7.17;;;-3.40;81.30;;;;;;4933445;29;20059;-75
2021/01/11 08:22:10;;;;;;;19.03;7.93;;;-3.30;81.20;;;;;;4935775;29;20116;-75
2021/01/11 08:24:36;;;;;;;17.03;7.87;;;-3.30;81.60;;;;;;4930572;29;20742;-75
2021/01/11 08:27:11;;;;;;;16.30;7.37;;;-3.20;82.00;;;;;;4898992;29;20108;-75
2021/01/11 08:29:40;;;;;;;15.73;7.27;;;-3.20;81.40;;;;;;4905047;29;20028;-76
2021/01/11 08:32:10;;;;;;;17.23;7.20;;;-3.10;81.30;;;;;;4927510;29;20066;-75
2021/01/11 08:34:35;;;;;;;17.13;8.37;;;-3.10;80.90;;;;;;4905566;29;20044;-75
2021/01/11 08:37:19;;;;;;;16.17;7.83;;;-3.10;81.00;;;;;;4913227;29;20509;-75
2021/01/11 08:39:57;;;;;;;15.83;7.50;;;-3.10;81.10;;;;;;4924004;29;20028;-76
2021/01/11 08:42:28;;;;;;;14.27;6.67;;;-3.00;81.40;;;;;;4908082;29;20474;-75
2021/01/11 08:44:53;;;;;;;17.17;7.63;;;-3.00;81.10;;;;;;4910978;29;20028;-78
2021/01/11 08:47:30;;;;;;;16.13;7.47;;;-3.00;81.20;;;;;;4917253;29;20036;-75
2021/01/11 08:50:00;;;;;;;16.07;7.80;;;-3.00;81.20;;;;;;4921924;29;20086;-75
2021/01/11 08:52:28;;;;;;;17.77;7.97;;;-3.00;81.30;;;;;;4935941;29;20031;-75
2021/01/11 08:54:54;;;;;;;16.87;7.33;;;-2.90;81.50;;;;;;4913574;29;20034;-76
2021/01/11 08:57:20;;;;;;;16.57;8.10;;;-2.80;81.40;;;;;;4917808;29;20028;-75
2021/01/11 08:59:47;;;;;;;18.27;8.30;;;-2.80;81.10;;;;;;4906015;29;20524;-76
2021/01/11 09:02:27;;;;;;;18.90;8.70;;;-2.70;81.40;;;;;;4910460;29;20063;-75
2021/01/11 09:04:53;;;;;;;15.03;7.00;;;-2.70;81.70;;;;;;4913662;29;20028;-76
2021/01/11 09:07:45;;;;;;;16.60;8.37;;;-2.70;81.40;;;;;;4902842;29;20028;-74
2021/01/11 09:10:27;;;;;;;17.38;7.53;;;-2.60;81.60;;;;;;4919590;29;20480;-75
2021/01/11 09:12:53;;;;;;;21.67;8.32;;;-2.60;82.30;;;;;;4955620;29;20082;-75
2021/01/11 09:15:26;;;;;;;17.27;8.60;;;-2.60;81.80;;;;;;4917582;29;20032;-75
2021/01/11 09:18:05;;;;;;;19.93;8.50;;;-2.50;82.40;;;;;;4922688;29;20560;-76
2021/01/11 09:20:36;;;;;;;16.63;8.30;;;-2.50;82.50;;;;;;4925794;29;20032;-76
2021/01/11 09:23:01;;;;;;;18.93;9.53;;;-2.40;82.70;;;;;;4914204;29;20036;-78
2021/01/11 09:25:28;;;;;;;20.50;9.07;;;-2.30;82.80;;;;;;4936463;29;20468;-78
2021/01/11 09:27:55;;;;;;;21.63;8.73;;;-2.30;82.50;;;;;;4932441;29;20027;-76
2021/01/11 09:30:21;;;;;;;21.87;8.90;;;-2.20;82.40;;;;;;4926710;29;20035;-79
2021/01/11 09:32:46;;;;;;;20.43;9.37;;;-2.20;82.30;;;;;;4900477;29;20473;-79
2021/01/11 09:35:15;;;;;;;21.50;9.10;;;-2.10;82.30;;;;;;4932763;29;20063;-79
2021/01/11 09:37:41;;;;;;;19.50;8.80;;;-2.10;81.60;;;;;;4917771;29;20043;-79
2021/01/11 09:40:07;;;;;;;15.43;7.40;;;-2.10;81.70;;;;;;4907323;29;20453;-79
2021/01/11 09:42:33;;;;;;;14.23;6.80;;;-1.90;81.20;;;;;;4909303;29;20060;-80
2021/01/11 09:44:58;;;;;;;16.97;6.87;;;-1.90;79.70;;;;;;4930978;29;20354;-80
2021/01/11 09:47:24;;;;;;;16.53;6.63;;;-1.90;79.50;;;;;;4903515;29;20043;-78
2021/01/11 09:49:50;;;;;;;15.17;7.17;;;-1.80;79.20;;;;;;4931345;29;20525;-81
2021/01/11 09:52:15;;;;;;;14.37;7.07;;;-1.70;79.50;;;;;;4899892;29;20382;-78
2021/01/11 09:54:41;;;;;;;14.67;6.73;;;-1.70;79.60;;;;;;4912138;29;20362;-85
2021/01/11 09:57:10;;;;;;;14.83;6.97;;;-1.60;79.90;;;;;;4918841;29;20027;-78
2021/01/11 09:59:39;;;;;;;17.50;7.33;;;-1.60;79.50;;;;;;4903147;29;20024;-79
2021/01/11 10:02:05;;;;;;;17.10;7.10;;;-1.60;79.00;;;;;;4910916;29;20040;-77
2021/01/11 10:04:31;;;;;;;16.17;7.67;;;-1.60;79.50;;;;;;4926356;29;20058;-76
2021/01/11 10:06:57;;;;;;;16.77;7.10;;;-1.60;80.10;;;;;;4904857;29;20392;-78
2021/01/11 10:09:28;;;;;;;18.37;8.00;;;-1.60;80.80;;;;;;4915513;29;20083;-78
2021/01/11 10:11:59;;;;;;;18.50;8.07;;;-1.50;80.80;;;;;;4905511;29;20094;-79
2021/01/11 10:14:26;;;;;;;15.20;5.80;;;-1.40;79.90;;;;;;4930821;29;20024;-80
2021/01/11 10:16:51;;;;;;;19.67;8.70;;;-1.30;79.80;;;;;;4905820;29;20042;-80
2021/01/11 10:19:29;;;;;;;15.43;8.17;;;-1.20;79.30;;;;;;4915055;29;20027;-79
2021/01/11 10:21:59;;;;;;;17.63;9.60;;;-1.10;79.70;;;;;;4905910;29;20020;-78
2021/01/11 10:24:24;;;;;;;17.53;8.27;;;-1.00;79.80;;;;;;4927365;29;20032;-79
2021/01/11 10:26:51;;;;;;;21.67;9.03;;;-1.00;79.50;;;;;;4924064;29;20031;-79
2021/01/11 10:29:19;;;;;;;19.70;8.13;;;-0.90;78.80;;;;;;4902552;29;20271;-83
2021/01/11 10:31:45;;;;;;;17.33;7.90;;;-0.90;78.50;;;;;;4914797;29;20024;-82
2021/01/11 10:34:12;;;;;;;18.83;7.23;;;-0.90;78.10;;;;;;4923892;29;20457;-77
2021/01/11 10:36:47;;;;;;;14.10;6.80;;;-0.90;77.40;;;;;;4918210;29;20346;-78
2021/01/11 10:39:14;;;;;;;14.50;6.70;;;-0.90;77.60;;;;;;4902405;29;20399;-78
2021/01/11 10:41:40;;;;;;;12.93;6.60;;;-0.80;77.50;;;;;;4935305;29;20416;-75
2021/01/11 10:44:06;;;;;;;17.07;7.17;;;-0.80;77.00;;;;;;4912193;29;20036;-76
2021/01/11 10:46:33;;;;;;;16.77;6.83;;;-0.70;76.60;;;;;;4906815;29;20036;-76
2021/01/11 10:48:59;;;;;;;18.13;7.17;;;-0.70;75.40;;;;;;4912073;29;20082;-78
2021/01/11 10:51:25;;;;;;;15.47;7.13;;;-0.60;75.20;;;;;;4913428;29;20487;-79
2021/01/11 10:53:51;;;;;;;12.67;6.53;;;-0.60;75.50;;;;;;4913161;29;20038;-84
2021/01/11 10:56:18;;;;;;;14.07;6.90;;;-0.60;75.50;;;;;;4907280;29;20027;-79
2021/01/11 10:58:43;;;;;;;14.20;7.20;;;-0.50;75.50;;;;;;4906372;29;20167;-77
2021/01/11 11:01:12;;;;;;;12.37;6.47;;;-0.50;75.60;;;;;;4914286;29;20540;-76
2021/01/11 11:03:38;;;;;;;15.13;6.83;;;-0.60;75.30;;;;;;4919721;29;20126;-74
2021/01/11 11:06:04;;;;;;;15.97;7.40;;;-0.50;75.80;;;;;;4910643;29;20541;-77
2021/01/11 11:08:30;;;;;;;16.23;7.07;;;-0.50;75.30;;;;;;4909512;29;20027;-75
2021/01/11 11:10:56;;;;;;;13.93;7.30;;;-0.40;75.90;;;;;;4918505;29;20032;-76
2021/01/11 11:13:22;;;;;;;14.60;7.00;;;-0.40;75.70;;;;;;4900432;29;20044;-78
2021/01/11 11:15:48;;;;;;;14.80;6.60;;;-0.40;75.10;;;;;;4945208;29;20111;-79
2021/01/11 11:18:14;;;;;;;14.80;6.97;;;-0.40;75.30;;;;;;4930416;29;20111;-79
2021/01/11 11:20:43;;;;;;;13.83;7.20;;;-0.40;75.30;;;;;;4915194;29;20131;-81
2021/01/11 11:23:08;;;;;;;14.93;6.93;;;-0.30;75.80;;;;;;4923369;29;20036;-81
2021/01/11 11:25:35;;;;;;;15.23;6.93;;;-0.20;75.40;;;;;;4921966;29;20101;-80
2021/01/11 11:28:01;;;;;;;16.73;6.93;;;-0.20;75.70;;;;;;4914955;29;20028;-86
2021/01/11 11:30:27;;;;;;;17.43;8.17;;;-0.10;76.20;;;;;;4912461;29;20050;-75
2021/01/11 11:32:53;;;;;;;14.60;7.37;;;0.00;76.30;;;;;;4920934;29;20485;-74
2021/01/11 11:35:21;;;;;;;16.13;7.43;;;0.00;75.30;;;;;;4919238;29;20029;-74
2021/01/11 11:37:47;;;;;;;14.47;7.33;;;0.00;75.30;;;;;;4906976;29;20484;-75
2021/01/11 11:40:14;;;;;;;13.30;7.30;;;0.20;75.80;;;;;;4912798;29;20122;-78
2021/01/11 11:42:41;;;;;;;13.17;6.90;;;0.20;75.50;;;;;;4914140;29;20034;-79
2021/01/11 11:45:12;;;;;;;15.80;7.17;;;0.30;74.90;;;;;;4932524;29;20167;-75
2021/01/11 11:47:39;;;;;;;12.82;5.97;;;0.30;74.10;;;;;;4922447;29;20536;-75
2021/01/11 11:50:07;;;;;;;13.73;7.10;;;0.30;73.30;;;;;;4913621;29;20478;-78
2021/01/11 11:52:33;;;;;;;15.60;7.83;;;0.30;74.00;;;;;;4929681;29;20067;-78
2021/01/11 11:54:59;;;;;;;15.37;7.33;;;0.40;74.10;;;;;;4906546;29;20028;-78
2021/01/11 11:57:25;;;;;;;16.57;7.93;;;0.40;74.70;;;;;;4917527;29;20461;-77
2021/01/11 11:59:50;;;;;;;14.67;7.67;;;0.50;74.20;;;;;;4907393;29;20381;-78
2021/01/11 12:02:16;;;;;;;17.60;8.10;;;0.50;73.60;;;;;;4911628;29;20529;-78
2021/01/11 12:04:42;;;;;;;13.47;6.90;;;0.50;72.40;;;;;;4913660;29;20028;-76
2021/01/11 12:07:12;;;;;;;19.97;9.03;;;0.60;73.10;;;;;;4905036;29;20059;-78
2021/01/11 12:09:38;;;;;;;21.37;8.30;;;0.70;74.10;;;;;;4934617;29;20027;-79
2021/01/11 12:12:04;;;;;;;16.10;8.10;;;0.80;73.40;;;;;;4907934;29;20035;-78
2021/01/11 12:14:29;;;;;;;18.97;8.43;;;0.80;72.60;;;;;;4914931;29;20035;-78
2021/01/11 12:16:55;;;;;;;19.10;8.80;;;0.90;72.70;;;;;;4923868;29;20028;-78
2021/01/11 12:19:21;;;;;;;18.50;8.10;;;1.10;72.80;;;;;;4925281;29;20035;-77
2021/01/11 12:21:46;;;;;;;17.03;8.50;;;1.30;71.60;;;;;;4933290;29;20024;-76
2021/01/11 12:24:12;;;;;;;16.30;8.10;;;1.50;70.00;;;;;;4909240;29;20027;-79
2021/01/11 12:26:42;;;;;;;18.73;7.63;;;1.60;68.10;;;;;;4908128;29;20481;-78
2021/01/11 12:29:09;;;;;;;17.47;7.90;;;1.80;67.10;;;;;;4933765;29;20468;-78
2021/01/11 12:31:35;;;;;;;17.93;8.20;;;1.90;67.30;;;;;;4921902;29;20107;-78
2021/01/11 12:34:01;;;;;;;17.47;8.30;;;2.10;68.10;;;;;;4913664;29;20131;-78
2021/01/11 12:36:29;;;;;;;17.60;8.63;;;2.30;67.10;;;;;;4915624;29;20098;-78
2021/01/11 12:38:56;;;;;;;20.40;8.63;;;2.40;66.80;;;;;;4933648;29;20031;-78
2021/01/11 12:41:23;;;;;;;18.67;8.60;;;2.50;66.10;;;;;;4920840;29;20028;-79
2021/01/11 12:43:50;;;;;;;14.63;7.23;;;2.60;65.10;;;;;;4906707;29;20429;-79
2021/01/11 12:46:16;;;;;;;15.50;7.97;;;2.60;63.80;;;;;;4930305;29;20034;-78